Time;durP1;ratioP1;P1;durP2;ratioP2;P2;SDS_P1;SDS_P2;PMS_P1;PMS_P2;Temp;Humidity;BMP_temperature;BMP_pressure;BME280_temperature;BME280_humidity;BME280_pressure;Samples;Min_cycle;Max_cycle;Signal;HPM_P1;HPM_P2
2023/06/19 00:01:44;;;;;;;8.85;6.90;;;23.40;99.90;;;;;;5026510;28;20076;-69
2023/06/19 00:04:10;;;;;;;7.95;6.88;;;23.40;99.90;;;;;;5028983;28;20092;-69
2023/06/19 00:06:36;;;;;;;7.72;6.93;;;23.50;99.90;;;;;;5018204;28;20141;-69
2023/06/19 00:09:02;;;;;;;9.80;6.97;;;23.50;99.90;;;;;;5024783;28;20488;-69
2023/06/19 00:11:28;;;;;;;9.40;6.50;;;23.40;99.90;;;;;;5031813;28;20061;-69
2023/06/19 00:13:54;;;;;;;13.10;6.75;;;23.40;99.90;;;;;;5029884;28;20065;-69
2023/06/19 00:16:20;;;;;;;8.02;6.72;;;23.40;99.90;;;;;;5032631;28;20026;-69
2023/06/19 00:18:46;;;;;;;7.72;6.78;;;23.40;99.90;;;;;;5029110;28;20051;-69
2023/06/19 00:21:12;;;;;;;7.88;6.75;;;23.40;99.90;;;;;;5027088;28;20067;-69
2023/06/19 00:23:38;;;;;;;9.23;7.55;;;23.40;99.90;;;;;;5029751;28;20049;-69
2023/06/19 00:26:04;;;;;;;7.70;7.00;;;23.20;99.90;;;;;;5026259;28;20021;-69
2023/06/19 00:28:30;;;;;;;7.47;6.72;;;23.20;99.90;;;;;;5027134;28;20584;-69
2023/06/19 00:30:56;;;;;;;7.70;6.93;;;23.10;99.90;;;;;;5026944;28;20033;-69
2023/06/19 00:33:22;;;;;;;9.52;7.43;;;23.20;99.90;;;;;;5021865;28;20032;-69
2023/06/19 00:35:50;;;;;;;8.18;7.15;;;23.20;99.90;;;;;;5030007;28;20026;-69
2023/06/19 00:38:16;;;;;;;7.60;6.53;;;23.10;99.90;;;;;;5026798;28;20034;-69
2023/06/19 00:40:42;;;;;;;7.60;6.90;;;23.10;99.90;;;;;;5021616;28;20426;-69
2023/06/19 00:43:07;;;;;;;7.47;6.82;;;23.10;99.90;;;;;;5024952;28;20916;-69
2023/06/19 00:45:33;;;;;;;8.00;7.20;;;23.10;99.90;;;;;;5027958;28;20081;-69
2023/06/19 00:48:00;;;;;;;9.38;7.10;;;23.00;99.90;;;;;;5028810;28;20026;-69
2023/06/19 00:50:30;;;;;;;7.25;6.38;;;23.00;99.90;;;;;;5028745;28;20449;-69
2023/06/19 00:52:57;;;;;;;9.30;7.50;;;23.00;99.90;;;;;;5021422;28;20013;-69
2023/06/19 00:55:27;;;;;;;8.10;6.95;;;22.90;99.90;;;;;;5024029;28;20053;-69
2023/06/19 00:57:53;;;;;;;8.02;7.15;;;22.90;99.90;;;;;;5023662;28;20025;-68
2023/06/19 01:00:19;;;;;;;8.55;7.53;;;22.80;99.90;;;;;;5023170;28;20021;-69
2023/06/19 01:02:46;;;;;;;9.57;6.22;;;22.80;99.90;;;;;;5022676;28;20612;-69
2023/06/19 01:05:12;;;;;;;9.05;7.53;;;22.80;99.90;;;;;;5031507;28;20033;-69
2023/06/19 01:07:49;;;;;;;8.88;7.13;;;22.80;99.90;;;;;;5025143;28;20112;-69
2023/06/19 01:10:24;;;;;;;9.38;7.25;;;22.80;99.90;;;;;;5023922;28;20117;-69
2023/06/19 01:13:16;;;;;;;6.85;6.25;;;22.70;99.90;;;;;;5024103;28;20014;-69
2023/06/19 01:15:42;;;;;;;7.43;6.73;;;22.60;99.90;;;;;;5011823;28;20033;-69
2023/06/19 01:18:11;;;;;;;7.18;6.45;;;22.50;99.90;;;;;;5021691;28;20389;-69
2023/06/19 01:20:37;;;;;;;6.82;6.10;;;22.50;99.90;;;;;;5026380;28;20101;-69
2023/06/19 01:23:10;;;;;;;6.45;5.80;;;22.50;99.90;;;;;;5026812;28;20500;-69
2023/06/19 01:25:36;;;;;;;7.40;6.55;;;22.40;99.90;;;;;;5017606;28;20084;-69
2023/06/19 01:28:05;;;;;;;6.45;5.32;;;22.30;99.90;;;;;;5032361;28;20033;-69
2023/06/19 01:30:31;;;;;;;5.57;5.00;;;22.30;99.90;;;;;;5022851;28;20037;-69
2023/06/19 01:33:03;;;;;;;6.07;5.20;;;22.20;99.90;;;;;;5024740;28;20356;-69
2023/06/19 01:35:35;;;;;;;8.70;5.43;;;22.30;99.90;;;;;;5028800;28;20030;-69
2023/06/19 01:38:02;;;;;;;6.30;5.22;;;22.30;99.90;;;;;;5027330;28;20025;-69
2023/06/19 01:40:31;;;;;;;5.40;4.85;;;22.30;99.90;;;;;;5025137;28;20026;-70
2023/06/19 01:43:01;;;;;;;6.68;5.32;;;22.20;99.90;;;;;;5027660;28;20018;-69
2023/06/19 01:45:29;;;;;;;6.70;4.78;;;22.20;99.90;;;;;;5017821;28;20072;-69
2023/06/19 01:47:54;;;;;;;5.72;5.10;;;22.10;99.90;;;;;;5021003;28;20101;-69
2023/06/19 01:50:24;;;;;;;5.38;4.88;;;22.10;99.90;;;;;;5027791;28;20121;-69
2023/06/19 01:52:50;;;;;;;5.95;4.82;;;22.00;99.90;;;;;;5025434;28;20047;-69
2023/06/19 01:55:16;;;;;;;6.18;4.47;;;21.90;99.90;;;;;;5023160;28;20071;-69
2023/06/19 01:57:42;;;;;;;4.82;4.32;;;21.90;99.90;;;;;;5028757;28;20032;-69
2023/06/19 02:00:09;;;;;;;8.23;5.10;;;22.00;99.90;;;;;;5019966;28;20033;-69
2023/06/19 02:02:36;;;;;;;5.20;4.70;;;22.10;99.90;;;;;;5025186;28;20017;-69
2023/06/19 02:05:01;;;;;;;5.55;5.05;;;22.00;99.90;;;;;;5031344;28;20032;-69
2023/06/19 02:07:27;;;;;;;5.35;4.25;;;21.90;99.90;;;;;;5024825;28;20009;-69
2023/06/19 02:09:53;;;;;;;7.13;5.22;;;22.00;99.90;;;;;;5022769;28;20050;-70
2023/06/19 02:12:19;;;;;;;5.07;4.22;;;22.00;99.90;;;;;;5028370;28;20025;-69
2023/06/19 02:14:45;;;;;;;5.55;4.57;;;22.00;99.90;;;;;;5028206;28;20478;-69
2023/06/19 02:17:10;;;;;;;5.35;4.35;;;22.00;99.90;;;;;;5025341;28;20509;-69
2023/06/19 02:19:36;;;;;;;5.25;4.05;;;22.00;99.90;;;;;;5025881;28;20102;-70
2023/06/19 02:22:02;;;;;;;5.88;4.20;;;22.10;99.90;;;;;;5023121;28;20064;-70
2023/06/19 02:24:28;;;;;;;4.85;4.35;;;22.10;99.90;;;;;;5025790;28;20060;-70
2023/06/19 02:26:53;;;;;;;4.88;4.40;;;22.10;99.90;;;;;;5029240;28;20033;-69
2023/06/19 02:29:20;;;;;;;5.35;4.47;;;22.20;99.90;;;;;;5025996;28;20025;-70
2023/06/19 02:31:45;;;;;;;5.00;4.18;;;22.20;99.90;;;;;;5023217;28;20717;-70
2023/06/19 02:34:11;;;;;;;6.38;4.25;;;22.10;99.90;;;;;;5021673;28;20113;-72
2023/06/19 02:36:37;;;;;;;4.85;4.22;;;22.00;99.90;;;;;;5025625;28;20075;-71
2023/06/19 02:39:06;;;;;;;4.60;4.07;;;22.10;99.90;;;;;;5023681;28;20077;-70
2023/06/19 02:41:32;;;;;;;6.68;4.50;;;22.10;99.90;;;;;;5023491;28;20079;-69
2023/06/19 02:43:58;;;;;;;4.68;4.18;;;22.00;99.90;;;;;;5026078;28;20021;-69
2023/06/19 02:46:23;;;;;;;5.03;4.53;;;22.00;99.90;;;;;;5016928;28;20015;-69
2023/06/19 02:48:49;;;;;;;4.63;3.78;;;21.90;99.90;;;;;;5027174;28;20051;-69
2023/06/19 02:51:15;;;;;;;6.97;4.57;;;21.90;99.90;;;;;;5027966;28;20407;-69
2023/06/19 02:53:41;;;;;;;6.38;4.63;;;21.90;99.90;;;;;;5015677;28;20101;-69
2023/06/19 02:56:07;;;;;;;4.72;4.32;;;21.80;99.90;;;;;;5021878;28;20112;-69
2023/06/19 02:58:34;;;;;;;6.10;4.15;;;21.90;99.90;;;;;;5027128;28;20018;-69
2023/06/19 03:00:59;;;;;;;6.10;4.35;;;21.90;99.90;;;;;;5022168;28;20529;-69
2023/06/19 03:03:25;;;;;;;5.57;4.18;;;21.70;99.90;;;;;;5022788;28;20033;-69
2023/06/19 03:05:51;;;;;;;4.93;4.43;;;21.60;99.90;;;;;;5028406;28;20493;-69
2023/06/19 03:08:17;;;;;;;4.50;4.10;;;21.70;99.90;;;;;;5022515;28;20022;-69
2023/06/19 03:10:42;;;;;;;5.60;4.72;;;21.70;99.90;;;;;;5006398;28;20048;-69
2023/06/19 03:13:08;;;;;;;5.28;4.78;;;21.70;99.90;;;;;;5017632;28;20425;-69
2023/06/19 03:15:34;;;;;;;5.13;4.63;;;21.50;99.90;;;;;;5026685;28;20100;-70
2023/06/19 03:18:03;;;;;;;5.32;4.75;;;21.40;99.90;;;;;;5019515;28;20375;-69
2023/06/19 03:20:28;;;;;;;4.57;4.18;;;21.50;99.90;;;;;;5027161;28;20423;-70
2023/06/19 03:22:54;;;;;;;6.32;4.60;;;21.60;99.90;;;;;;5028577;28;20474;-69
2023/06/19 03:25:20;;;;;;;8.15;4.82;;;21.60;99.90;;;;;;5021613;28;20022;-69
2023/06/19 03:27:45;;;;;;;6.00;4.50;;;21.70;99.90;;;;;;5026772;28;20164;-68
2023/06/19 03:30:12;;;;;;;5.63;4.47;;;21.70;99.90;;;;;;5017930;28;20489;-69
2023/06/19 03:32:38;;;;;;;6.55;4.15;;;21.70;99.90;;;;;;5026768;28;20048;-69
2023/06/19 03:35:05;;;;;;;6.05;4.20;;;21.80;99.90;;;;;;5029396;28;20021;-68
2023/06/19 03:37:32;;;;;;;8.65;4.50;;;21.80;99.90;;;;;;5023872;28;20026;-69
2023/06/19 03:39:58;;;;;;;6.20;3.78;;;21.70;99.90;;;;;;5026371;28;20026;-68
2023/06/19 03:42:23;;;;;;;4.75;4.07;;;21.70;99.90;;;;;;5019554;28;20053;-69
2023/06/19 03:44:49;;;;;;;7.47;3.92;;;21.70;99.90;;;;;;5029021;28;20017;-69
2023/06/19 03:47:16;;;;;;;5.55;3.95;;;21.70;99.90;;;;;;5021703;28;20034;-69
2023/06/19 03:49:41;;;;;;;7.00;4.00;;;21.80;99.90;;;;;;5022506;28;20034;-69
2023/06/19 03:52:07;;;;;;;4.55;4.05;;;21.60;99.90;;;;;;5034304;28;20031;-68
2023/06/19 03:54:33;;;;;;;4.40;3.83;;;21.70;99.90;;;;;;5015879;28;20662;-69
2023/06/19 03:56:59;;;;;;;4.93;3.70;;;21.70;99.90;;;;;;5029785;28;20034;-68
2023/06/19 03:59:25;;;;;;;5.25;3.83;;;21.60;99.90;;;;;;5022220;28;20018;-68
2023/06/19 04:01:50;;;;;;;9.00;4.57;;;21.60;99.90;;;;;;5015634;28;20038;-69
2023/06/19 04:04:16;;;;;;;4.97;4.20;;;21.60;99.90;;;;;;5031707;28;20028;-69
2023/06/19 04:06:41;;;;;;;5.78;4.28;;;21.70;99.90;;;;;;5029051;28;20389;-69
2023/06/19 04:09:07;;;;;;;6.03;3.88;;;21.70;99.90;;;;;;5030163;28;20435;-68
2023/06/19 04:11:33;;;;;;;8.65;4.55;;;21.70;99.90;;;;;;5027640;28;20056;-69
2023/06/19 04:13:58;;;;;;;5.85;4.22;;;21.80;99.90;;;;;;5025633;28;20535;-69
2023/06/19 04:16:24;;;;;;;5.93;4.15;;;21.60;99.90;;;;;;5027512;28;20534;-69
2023/06/19 04:18:50;;;;;;;5.20;3.58;;;21.70;99.90;;;;;;5034776;28;20079;-69
2023/06/19 04:21:16;;;;;;;4.45;4.05;;;21.70;99.90;;;;;;5021786;28;20375;-69
2023/06/19 04:23:41;;;;;;;6.18;4.05;;;21.60;99.90;;;;;;5024800;28;20017;-70
2023/06/19 04:26:07;;;;;;;4.53;3.83;;;21.70;99.90;;;;;;5033082;28;20487;-69
2023/06/19 04:28:33;;;;;;;4.63;3.78;;;21.60;99.90;;;;;;5024961;28;20021;-69
2023/06/19 04:31:01;;;;;;;4.65;3.88;;;21.70;99.90;;;;;;5023800;28;20030;-69
2023/06/19 04:33:29;;;;;;;6.18;3.60;;;21.80;99.90;;;;;;5028753;28;20173;-71
2023/06/19 04:35:55;;;;;;;5.03;4.50;;;21.80;99.90;;;;;;5013461;28;20470;-71
2023/06/19 04:38:23;;;;;;;6.05;4.13;;;21.90;99.90;;;;;;5029714;28;20018;-71
2023/06/19 04:40:53;;;;;;;4.68;4.03;;;21.80;99.90;;;;;;5024132;28;20029;-67
2023/06/19 04:43:19;;;;;;;6.68;4.07;;;21.70;99.90;;;;;;5025089;28;20025;-67
2023/06/19 04:45:45;;;;;;;6.68;4.20;;;21.90;99.90;;;;;;5023347;28;20025;-70
2023/06/19 04:48:11;;;;;;;6.53;4.05;;;21.80;99.90;;;;;;5007702;28;20017;-70
2023/06/19 04:50:37;;;;;;;6.15;4.45;;;21.80;99.90;;;;;;5029191;28;20022;-71
2023/06/19 04:53:03;;;;;;;5.53;4.18;;;21.80;99.90;;;;;;5028965;28;20029;-72
2023/06/19 04:55:28;;;;;;;6.13;4.38;;;21.80;99.90;;;;;;5027053;28;20497;-71
2023/06/19 04:57:54;;;;;;;7.22;4.30;;;21.90;99.90;;;;;;5030520;28;20030;-70
2023/06/19 05:00:21;;;;;;;8.27;4.45;;;21.90;99.90;;;;;;5015545;28;20029;-71
2023/06/19 05:02:47;;;;;;;6.38;4.43;;;21.90;99.90;;;;;;5013262;28;20466;-71
2023/06/19 05:05:13;;;;;;;4.70;4.28;;;21.80;99.90;;;;;;5034142;28;20082;-72
2023/06/19 05:07:39;;;;;;;9.43;4.90;;;21.90;99.90;;;;;;5027094;28;20505;-69
2023/06/19 05:10:07;;;;;;;5.22;4.82;;;21.80;99.90;;;;;;5021434;28;20036;-67
2023/06/19 05:12:34;;;;;;;8.07;4.70;;;21.70;99.90;;;;;;5021129;28;20026;-69
2023/06/19 05:15:00;;;;;;;6.13;4.50;;;21.90;99.90;;;;;;5023200;28;20037;-68
2023/06/19 05:17:26;;;;;;;7.05;5.00;;;21.90;99.90;;;;;;5025390;28;20029;-70
2023/06/19 05:19:51;;;;;;;7.53;4.70;;;21.80;99.90;;;;;;5007201;28;20636;-70
2023/06/19 05:22:18;;;;;;;8.18;4.57;;;21.90;99.90;;;;;;5023374;28;20022;-70
2023/06/19 05:24:44;;;;;;;8.00;4.82;;;21.90;99.90;;;;;;5025816;28;20072;-70
2023/06/19 05:27:10;;;;;;;8.32;5.15;;;21.80;99.90;;;;;;5029783;28;20025;-70
2023/06/19 05:29:36;;;;;;;6.15;4.60;;;21.80;99.90;;;;;;5025690;28;20040;-70
2023/06/19 05:32:02;;;;;;;5.57;4.18;;;21.80;99.90;;;;;;5017204;28;20041;-70
2023/06/19 05:34:27;;;;;;;8.02;4.70;;;21.90;99.90;;;;;;5022847;28;20992;-70
2023/06/19 05:36:53;;;;;;;8.40;4.63;;;22.00;99.90;;;;;;5024477;28;20091;-70
2023/06/19 05:39:19;;;;;;;5.70;4.72;;;22.20;99.90;;;;;;5026753;28;20017;-70
2023/06/19 05:41:45;;;;;;;6.82;5.00;;;22.10;99.90;;;;;;5023718;28;20033;-70
2023/06/19 05:44:15;;;;;;;8.85;5.03;;;22.20;99.90;;;;;;5021658;28;20028;-70
2023/06/19 05:46:41;;;;;;;8.18;4.78;;;22.30;99.90;;;;;;5024722;28;20025;-70
2023/06/19 05:49:07;;;;;;;8.68;5.90;;;22.30;99.90;;;;;;5010122;28;20017;-70
2023/06/19 05:51:33;;;;;;;5.72;5.10;;;22.50;99.90;;;;;;5023194;28;20088;-70
2023/06/19 05:54:03;;;;;;;6.35;4.63;;;22.50;99.90;;;;;;5025669;28;20029;-70
2023/06/19 05:56:30;;;;;;;7.65;5.00;;;22.50;99.90;;;;;;5021509;28;20032;-70
2023/06/19 05:58:56;;;;;;;10.80;4.85;;;22.50;99.90;;;;;;5025392;28;20101;-70
2023/06/19 06:01:21;;;;;;;9.45;4.85;;;22.60;99.90;;;;;;5021955;28;20557;-70
2023/06/19 06:03:47;;;;;;;6.95;5.30;;;22.60;99.90;;;;;;5025405;28;20108;-70
2023/06/19 06:06:12;;;;;;;7.07;5.03;;;22.30;99.90;;;;;;5024100;28;20104;-71
2023/06/19 06:08:38;;;;;;;6.22;5.18;;;22.30;99.90;;;;;;5028153;28;20096;-70
2023/06/19 06:11:04;;;;;;;5.90;5.25;;;22.40;99.90;;;;;;5031262;28;20033;-70
2023/06/19 06:13:29;;;;;;;4.03;3.72;;;22.50;99.90;;;;;;5021817;28;20018;-70
2023/06/19 06:15:55;;;;;;;4.80;4.00;;;22.60;99.90;;;;;;5025472;28;20022;-70
2023/06/19 06:18:21;;;;;;;6.53;4.15;;;22.60;99.90;;;;;;5022649;28;20075;-70
2023/06/19 06:20:47;;;;;;;6.03;4.13;;;22.70;99.90;;;;;;5024338;28;20028;-71
2023/06/19 06:23:13;;;;;;;5.85;3.65;;;22.80;99.90;;;;;;5020215;28;20037;-70
2023/06/19 06:25:38;;;;;;;5.45;4.20;;;22.80;99.90;;;;;;5026076;28;20025;-70
2023/06/19 06:28:05;;;;;;;5.07;4.30;;;22.80;99.90;;;;;;5020662;28;20473;-70
2023/06/19 06:30:30;;;;;;;5.50;4.03;;;22.90;99.90;;;;;;5019634;28;20078;-70
2023/06/19 06:32:58;;;;;;;5.32;4.55;;;22.90;99.90;;;;;;5020131;28;20045;-71
2023/06/19 06:35:24;;;;;;;6.22;4.30;;;22.90;99.90;;;;;;5004779;28;20083;-70
2023/06/19 06:37:50;;;;;;;6.32;4.53;;;23.00;99.90;;;;;;5009167;28;20026;-71
2023/06/19 06:40:15;;;;;;;6.63;4.18;;;23.00;99.90;;;;;;5025261;28;20021;-71
2023/06/19 06:42:41;;;;;;;7.88;4.50;;;23.00;99.90;;;;;;5010764;28;20021;-70
2023/06/19 06:45:08;;;;;;;5.53;4.30;;;23.10;99.90;;;;;;5022111;28;20046;-70
2023/06/19 06:47:34;;;;;;;6.50;5.90;;;23.10;99.90;;;;;;5024098;28;20032;-70
2023/06/19 06:50:00;;;;;;;5.18;4.65;;;22.90;99.90;;;;;;5021602;28;20502;-70
2023/06/19 06:52:27;;;;;;;7.38;5.57;;;23.00;99.90;;;;;;5010691;28;20044;-70
2023/06/19 06:54:53;;;;;;;8.85;5.45;;;23.00;99.90;;;;;;5026766;28;20032;-70
2023/06/19 06:57:19;;;;;;;6.03;5.47;;;23.10;99.90;;;;;;5026901;28;20102;-70
2023/06/19 06:59:44;;;;;;;6.03;5.43;;;23.10;99.90;;;;;;5022111;28;20014;-70
2023/06/19 07:02:10;;;;;;;6.10;5.50;;;23.20;99.90;;;;;;4999013;28;20390;-70
2023/06/19 07:04:36;;;;;;;6.90;6.30;;;23.30;99.90;;;;;;5007144;28;20041;-70
2023/06/19 07:07:03;;;;;;;7.03;6.03;;;23.40;99.90;;;;;;5024328;28;20104;-70
2023/06/19 07:09:29;;;;;;;7.55;6.03;;;23.60;99.90;;;;;;5018274;28;20025;-70
2023/06/19 07:11:56;;;;;;;7.15;6.45;;;23.50;99.90;;;;;;5015339;28;20036;-70
2023/06/19 07:14:22;;;;;;;7.35;6.43;;;23.60;99.90;;;;;;5006384;28;20025;-71
2023/06/19 07:16:49;;;;;;;9.95;6.50;;;23.60;99.90;;;;;;5023495;28;20033;-71
2023/06/19 07:19:15;;;;;;;7.88;7.00;;;23.60;99.90;;;;;;5029893;28;20018;-71
2023/06/19 07:21:42;;;;;;;7.68;6.75;;;23.70;99.90;;;;;;5028437;28;20017;-71
2023/06/19 07:24:08;;;;;;;10.85;6.00;;;23.80;99.90;;;;;;5032305;28;20349;-71
2023/06/19 07:26:34;;;;;;;9.00;6.57;;;24.00;99.90;;;;;;5037444;28;20026;-71
2023/06/19 07:28:59;;;;;;;8.80;6.93;;;24.10;99.90;;;;;;5025920;28;20024;-71
2023/06/19 07:31:25;;;;;;;6.72;5.93;;;24.10;99.90;;;;;;5029903;28;20526;-71
2023/06/19 07:33:51;;;;;;;7.35;6.13;;;24.10;99.90;;;;;;5026949;28;20033;-71
2023/06/19 07:36:16;;;;;;;7.47;6.22;;;24.00;99.90;;;;;;5013172;28;20029;-71
2023/06/19 07:38:43;;;;;;;6.50;5.90;;;24.20;99.90;;;;;;5026039;28;20025;-71
2023/06/19 07:41:09;;;;;;;8.60;6.32;;;24.40;99.90;;;;;;5027135;28;20473;-71
2023/06/19 07:43:36;;;;;;;9.35;6.65;;;24.30;99.90;;;;;;5034230;28;20489;-71
2023/06/19 07:46:02;;;;;;;8.93;6.47;;;24.10;99.90;;;;;;5022818;28;20037;-71
2023/06/19 07:48:28;;;;;;;7.22;6.53;;;24.30;99.90;;;;;;5022259;28;20021;-71
2023/06/19 07:50:54;;;;;;;8.38;7.53;;;24.40;99.90;;;;;;5020728;28;20042;-71
2023/06/19 07:53:19;;;;;;;10.07;6.53;;;24.40;99.90;;;;;;5028328;28;20470;-71
2023/06/19 07:55:45;;;;;;;7.53;6.50;;;24.50;99.90;;;;;;5011584;28;20231;-71
2023/06/19 07:58:11;;;;;;;9.60;6.68;;;24.50;99.90;;;;;;5026226;28;20498;-71
2023/06/19 08:00:37;;;;;;;7.38;6.53;;;24.70;99.90;;;;;;5016116;28;20534;-71
2023/06/19 08:03:03;;;;;;;6.75;6.05;;;24.90;99.90;;;;;;5033870;28;20025;-71
2023/06/19 08:05:28;;;;;;;7.72;6.97;;;24.80;99.90;;;;;;5023934;28;20026;-71
2023/06/19 08:07:54;;;;;;;7.20;6.55;;;24.80;99.90;;;;;;5030652;28;20018;-71
2023/06/19 08:10:20;;;;;;;8.90;6.60;;;24.80;99.90;;;;;;5026260;28;20663;-69
2023/06/19 08:12:45;;;;;;;8.45;6.50;;;24.80;99.90;;;;;;5025320;28;20022;-70
2023/06/19 08:15:13;;;;;;;8.02;6.75;;;24.80;99.90;;;;;;5024985;28;20033;-71
2023/06/19 08:17:40;;;;;;;7.97;6.60;;;24.70;99.90;;;;;;5023333;28;20113;-70
2023/06/19 08:20:07;;;;;;;7.43;6.82;;;24.60;99.90;;;;;;5010062;28;20030;-70
2023/06/19 08:22:32;;;;;;;6.97;6.30;;;24.50;99.90;;;;;;5014570;28;20490;-71
2023/06/19 08:24:58;;;;;;;11.13;6.85;;;24.80;99.90;;;;;;5027756;28;20115;-70
2023/06/19 08:27:24;;;;;;;9.75;7.47;;;24.80;99.90;;;;;;5030541;28;20456;-71
2023/06/19 08:29:49;;;;;;;8.27;6.80;;;24.50;99.90;;;;;;5017315;28;20441;-70
2023/06/19 08:32:16;;;;;;;9.20;7.75;;;24.50;99.90;;;;;;5026298;28;20043;-71
2023/06/19 08:34:41;;;;;;;7.93;7.22;;;24.70;99.90;;;;;;5020326;28;20498;-70
2023/06/19 08:37:08;;;;;;;6.68;5.90;;;24.80;99.90;;;;;;5023986;28;20036;-70
2023/06/19 08:39:35;;;;;;;10.40;6.50;;;25.10;99.90;;;;;;5025352;28;20045;-70
2023/06/19 08:42:01;;;;;;;12.32;6.30;;;25.40;99.90;;;;;;5024222;28;20461;-71
2023/06/19 08:44:27;;;;;;;9.15;7.85;;;25.30;99.90;;;;;;5032375;28;20025;-71
2023/06/19 08:46:52;;;;;;;8.52;7.63;;;25.00;99.90;;;;;;5027783;28;20041;-70
2023/06/19 08:49:18;;;;;;;10.13;7.40;;;25.00;99.90;;;;;;5017154;28;20014;-70
2023/06/19 08:51:44;;;;;;;10.18;7.85;;;25.30;99.90;;;;;;5021758;28;20037;-70
2023/06/19 08:54:10;;;;;;;8.80;7.22;;;25.30;99.90;;;;;;5030566;28;20064;-70
2023/06/19 08:56:37;;;;;;;9.60;8.38;;;25.40;99.90;;;;;;5029998;28;20024;-70
2023/06/19 08:59:14;;;;;;;8.20;7.22;;;25.30;99.90;;;;;;5023271;28;20028;-71
2023/06/19 09:01:40;;;;;;;8.00;6.82;;;25.60;99.90;;;;;;5008038;28;20057;-70
2023/06/19 09:04:13;;;;;;;9.30;7.47;;;25.80;99.90;;;;;;5025989;28;20056;-71
2023/06/19 09:07:00;;;;;;;9.05;7.38;;;25.40;99.90;;;;;;5024430;28;20033;-71
2023/06/19 09:09:26;;;;;;;9.50;6.63;;;25.40;99.90;;;;;;5026452;28;20052;-71
2023/06/19 09:12:07;;;;;;;8.07;6.50;;;25.50;99.90;;;;;;5023876;28;20029;-71
2023/06/19 09:14:34;;;;;;;8.57;7.78;;;25.80;99.90;;;;;;5026063;28;20051;-70
2023/06/19 09:17:02;;;;;;;9.73;7.28;;;26.00;99.90;;;;;;5024736;28;20059;-70
2023/06/19 09:19:27;;;;;;;8.73;7.85;;;26.10;99.90;;;;;;5027465;28;20029;-71
2023/06/19 09:21:58;;;;;;;8.52;6.88;;;26.40;99.90;;;;;;5026589;28;20033;-71
2023/06/19 09:24:37;;;;;;;9.25;6.65;;;26.40;99.90;;;;;;5022860;28;20049;-71
2023/06/19 09:27:13;;;;;;;7.78;7.00;;;26.20;99.90;;;;;;5008104;28;20071;-70
2023/06/19 09:29:43;;;;;;;9.48;7.75;;;26.20;99.90;;;;;;5020176;28;20052;-71
2023/06/19 09:32:22;;;;;;;9.35;7.00;;;26.10;99.90;;;;;;5023021;28;20025;-71
2023/06/19 09:34:50;;;;;;;10.18;7.35;;;26.00;99.90;;;;;;5019749;28;20193;-71
2023/06/19 09:37:25;;;;;;;10.13;6.80;;;26.10;99.90;;;;;;5027159;28;20025;-71
2023/06/19 09:39:57;;;;;;;9.38;6.93;;;26.30;99.90;;;;;;5022891;28;20037;-71
2023/06/19 09:42:43;;;;;;;8.68;6.82;;;26.30;99.90;;;;;;5024694;28;20025;-71
2023/06/19 09:45:12;;;;;;;7.45;6.63;;;26.20;99.90;;;;;;5008350;28;20030;-71
2023/06/19 09:47:38;;;;;;;8.45;6.47;;;26.40;99.90;;;;;;5025508;28;20044;-71
2023/06/19 09:50:06;;;;;;;6.93;6.22;;;26.80;99.90;;;;;;5021947;28;20152;-71
2023/06/19 09:52:32;;;;;;;8.90;6.50;;;26.80;99.90;;;;;;5017880;28;20108;-71
2023/06/19 09:54:59;;;;;;;8.57;7.60;;;26.90;99.90;;;;;;5024752;28;20041;-71
2023/06/19 09:57:26;;;;;;;8.05;6.65;;;27.00;99.90;;;;;;5026672;28;20021;-71
2023/06/19 09:59:59;;;;;;;8.43;6.93;;;27.10;99.90;;;;;;5025710;28;20025;-71
2023/06/19 10:02:27;;;;;;;9.73;6.72;;;27.30;99.90;;;;;;5026041;28;20022;-71
2023/06/19 10:04:55;;;;;;;11.57;6.70;;;27.60;99.90;;;;;;5024472;28;20104;-71
2023/06/19 10:07:32;;;;;;;9.57;6.43;;;27.60;99.90;;;;;;5025658;28;22321;-72
2023/06/19 10:10:06;;;;;;;8.85;5.97;;;27.60;99.90;;;;;;5024560;28;20037;-71
2023/06/19 10:12:45;;;;;;;7.20;5.78;;;27.90;99.90;;;;;;5025256;28;20025;-71
2023/06/19 10:15:29;;;;;;;9.20;6.60;;;28.10;99.90;;;;;;5025034;28;20029;-71
2023/06/19 10:18:03;;;;;;;7.38;6.68;;;28.20;99.90;;;;;;5000272;28;20030;-71
2023/06/19 10:20:34;;;;;;;8.38;6.82;;;27.80;99.90;;;;;;5019803;28;20037;-71
2023/06/19 10:23:07;;;;;;;7.57;6.50;;;28.10;99.90;;;;;;5001799;28;20112;-72
2023/06/19 10:25:35;;;;;;;7.88;7.05;;;28.10;99.90;;;;;;5005638;28;20029;-71
2023/06/19 10:28:02;;;;;;;7.30;6.38;;;28.10;99.90;;;;;;5027791;28;20139;-71
2023/06/19 10:30:29;;;;;;;10.50;6.97;;;27.90;99.90;;;;;;5017222;28;20572;-71
2023/06/19 10:32:55;;;;;;;9.25;7.28;;;28.10;99.90;;;;;;5022570;28;20528;-71
2023/06/19 10:35:21;;;;;;;7.30;6.60;;;28.30;99.90;;;;;;5020762;28;20037;-71
2023/06/19 10:37:48;;;;;;;8.65;6.50;;;28.30;99.90;;;;;;5022741;28;20025;-71
2023/06/19 10:40:13;;;;;;;11.35;6.90;;;28.40;99.90;;;;;;5022770;28;20029;-72
2023/06/19 10:42:40;;;;;;;9.52;6.63;;;28.00;99.90;;;;;;5020704;28;20025;-71
2023/06/19 10:45:08;;;;;;;8.57;7.55;;;28.00;99.90;;;;;;5004046;28;20040;-71
2023/06/19 10:47:35;;;;;;;8.75;7.38;;;28.00;99.90;;;;;;5024415;28;20121;-70
2023/06/19 10:50:02;;;;;;;8.20;7.25;;;27.40;99.90;;;;;;5024537;28;20044;-70
2023/06/19 10:52:31;;;;;;;9.77;6.75;;;27.40;99.90;;;;;;5021700;28;20022;-71
2023/06/19 10:54:57;;;;;;;8.57;6.53;;;27.70;99.90;;;;;;5020376;28;20017;-71
2023/06/19 10:57:32;;;;;;;8.38;6.60;;;28.10;99.90;;;;;;5022126;28;20496;-71
2023/06/19 10:59:58;;;;;;;11.15;6.68;;;28.40;99.90;;;;;;5024462;28;20060;-71
2023/06/19 11:02:25;;;;;;;8.63;7.40;;;28.70;99.90;;;;;;5000649;28;20048;-73
2023/06/19 11:04:54;;;;;;;9.50;8.23;;;29.00;99.90;;;;;;5024425;28;20104;-71
2023/06/19 11:07:22;;;;;;;10.80;7.45;;;29.00;99.90;;;;;;5019767;28;20049;-73
2023/06/19 11:09:48;;;;;;;9.63;7.45;;;29.00;99.90;;;;;;5023703;28;20127;-72
2023/06/19 11:12:20;;;;;;;11.00;7.35;;;29.20;99.90;;;;;;5020166;28;20069;-71
2023/06/19 11:14:46;;;;;;;10.13;8.25;;;29.50;99.90;;;;;;5022963;28;20037;-72
2023/06/19 11:17:12;;;;;;;9.18;7.72;;;29.50;99.20;;;;;;5005381;28;20033;-72
2023/06/19 11:19:40;;;;;;;8.07;6.85;;;29.60;98.80;;;;;;5020390;28;20563;-72
2023/06/19 11:22:07;;;;;;;9.63;7.95;;;29.90;99.90;;;;;;5023121;28;20029;-72
2023/06/19 11:24:33;;;;;;;7.95;7.10;;;29.90;98.00;;;;;;5019600;28;20385;-72
2023/06/19 11:26:59;;;;;;;8.35;7.50;;;30.10;96.70;;;;;;5021531;28;20018;-72
2023/06/19 11:29:35;;;;;;;10.85;7.90;;;30.00;97.00;;;;;;5023351;28;20037;-72
2023/06/19 11:32:14;;;;;;;8.88;7.97;;;30.20;96.70;;;;;;5004414;28;20041;-72
2023/06/19 11:34:40;;;;;;;9.57;7.72;;;30.20;96.10;;;;;;5006733;28;20397;-72
2023/06/19 11:37:14;;;;;;;8.63;7.80;;;30.00;95.80;;;;;;5019255;28;20025;-72
2023/06/19 11:39:41;;;;;;;10.98;7.65;;;30.00;96.70;;;;;;5020442;28;20033;-72
2023/06/19 11:42:08;;;;;;;9.73;7.00;;;30.20;95.70;;;;;;5025114;28;20014;-73
2023/06/19 11:44:34;;;;;;;9.23;7.82;;;30.20;95.80;;;;;;5022300;28;20108;-73
2023/06/19 11:47:00;;;;;;;11.30;7.63;;;30.20;96.90;;;;;;5025054;28;20140;-73
2023/06/19 11:49:26;;;;;;;8.95;8.05;;;30.30;96.80;;;;;;5023857;28;20418;-72
2023/06/19 11:51:53;;;;;;;9.82;7.50;;;30.20;95.00;;;;;;5022922;28;20624;-73
2023/06/19 11:54:19;;;;;;;9.38;7.28;;;30.30;95.40;;;;;;5003419;28;20108;-73
2023/06/19 11:56:44;;;;;;;8.32;7.35;;;30.50;95.20;;;;;;5021479;28;20127;-72
2023/06/19 11:59:10;;;;;;;10.10;6.63;;;30.60;94.10;;;;;;5024142;28;20056;-73
2023/06/19 12:01:37;;;;;;;7.68;6.85;;;30.70;93.40;;;;;;5022124;28;20100;-73
2023/06/19 12:04:03;;;;;;;11.25;7.93;;;30.50;93.60;;;;;;5025325;28;20542;-73
2023/06/19 12:06:30;;;;;;;10.60;8.10;;;29.90;94.10;;;;;;5023775;28;20044;-73
2023/06/19 12:08:55;;;;;;;13.52;7.75;;;30.10;96.10;;;;;;5024910;28;20051;-72
2023/06/19 12:11:22;;;;;;;8.60;7.30;;;30.30;93.90;;;;;;5025748;28;20378;-70
2023/06/19 12:13:48;;;;;;;9.82;6.97;;;30.50;93.60;;;;;;5024133;28;20025;-71
2023/06/19 12:16:14;;;;;;;7.90;7.13;;;30.50;91.80;;;;;;5024623;28;20493;-70
2023/06/19 12:18:40;;;;;;;9.75;7.20;;;30.50;91.60;;;;;;5008522;28;20433;-70
2023/06/19 12:21:06;;;;;;;9.88;7.78;;;30.50;91.20;;;;;;5020199;28;20467;-70
2023/06/19 12:23:32;;;;;;;8.55;7.10;;;30.60;91.60;;;;;;5024630;28;20060;-70
2023/06/19 12:25:57;;;;;;;7.47;6.78;;;30.60;92.40;;;;;;5005270;28;20112;-69
2023/06/19 12:28:23;;;;;;;8.32;7.45;;;30.90;92.80;;;;;;5025190;28;20062;-71
2023/06/19 12:30:51;;;;;;;8.90;7.13;;;30.90;91.90;;;;;;5007238;28;20038;-71
2023/06/19 12:33:18;;;;;;;9.05;7.32;;;30.90;92.90;;;;;;5026268;28;20540;-71
2023/06/19 12:35:44;;;;;;;8.00;6.55;;;30.90;90.20;;;;;;5019298;28;20040;-70
2023/06/19 12:38:10;;;;;;;7.47;6.72;;;30.90;93.20;;;;;;5024422;28;20021;-71
2023/06/19 12:40:37;;;;;;;8.25;6.55;;;30.70;92.10;;;;;;5025173;28;20022;-71
2023/06/19 12:43:03;;;;;;;9.95;7.10;;;30.90;90.30;;;;;;5022756;28;20022;-70
2023/06/19 12:45:28;;;;;;;7.82;7.00;;;31.00;90.00;;;;;;5027340;28;20147;-71